createdAt,value
2016-03-23T00:00:18.387Z,8
2016-03-23T00:01:18.376Z,8.03
2016-03-23T00:02:18.331Z,8
2016-03-23T00:03:18.318Z,8.03
2016-03-23T00:04:18.289Z,8.03
2016-03-23T00:05:18.276Z,8.08
2016-03-23T00:06:18.231Z,7.95
2016-03-23T00:07:18.204Z,7.98
2016-03-23T00:08:18.190Z,7.97
2016-03-23T00:09:18.161Z,7.97
2016-03-23T00:10:18.133Z,7.97
2016-03-23T00:11:18.105Z,7.9
2016-03-23T00:12:18.076Z,7.93
2016-03-23T00:13:18.063Z,7.87
2016-03-23T00:14:18.035Z,7.83
2016-03-23T00:15:18.006Z,7.8
2016-03-23T00:16:17.977Z,7.83
2016-03-23T00:17:17.950Z,7.72
2016-03-23T00:18:17.921Z,7.7
2016-03-23T00:19:17.892Z,7.73
2016-03-23T00:20:17.879Z,7.77
2016-03-23T00:21:17.897Z,7.83
2016-03-23T00:22:17.822Z,7.76
2016-03-23T00:23:17.809Z,7.77
2016-03-23T00:24:17.766Z,7.72
2016-03-23T00:25:17.752Z,7.73
2016-03-23T00:26:17.724Z,7.73
2016-03-23T00:27:17.695Z,7.77
2016-03-23T00:28:17.666Z,7.7
2016-03-23T00:29:17.638Z,7.75
2016-03-23T00:30:17.612Z,7.6
2016-03-23T00:31:17.584Z,7.58
2016-03-23T00:32:17.555Z,7.73
2016-03-23T00:33:17.543Z,7.72
2016-03-23T00:34:17.513Z,7.75
2016-03-23T00:35:17.485Z,7.72
2016-03-23T00:36:17.456Z,7.77
2016-03-23T00:37:17.428Z,7.73
2016-03-23T00:38:17.415Z,7.76
2016-03-23T00:39:17.387Z,7.79
2016-03-23T00:40:17.357Z,7.73
2016-03-23T00:41:17.345Z,7.69
2016-03-23T00:42:17.317Z,7.7
2016-03-23T00:43:17.272Z,7.69
2016-03-23T00:44:17.243Z,7.69
2016-03-23T00:45:17.214Z,7.61
2016-03-23T00:46:17.202Z,7.77
2016-03-23T00:47:17.173Z,7.61
2016-03-23T00:48:17.144Z,7.63
2016-03-23T00:49:17.117Z,7.61
2016-03-23T00:50:17.088Z,7.76
2016-03-23T00:51:17.059Z,7.63
2016-03-23T00:52:17.031Z,7.63
2016-03-23T00:53:17.017Z,7.69
2016-03-23T00:54:16.989Z,7.75
2016-03-23T00:55:16.960Z,7.6
2016-03-23T00:56:16.933Z,7.66
2016-03-23T00:57:16.919Z,7.77
2016-03-23T00:58:16.874Z,7.76
2016-03-23T00:59:16.862Z,7.73
2016-03-23T01:00:16.833Z,7.67
2016-03-23T01:01:16.805Z,7.75
2016-03-23T01:02:16.777Z,7.67
2016-03-23T01:03:16.749Z,7.67
2016-03-23T01:04:16.719Z,7.66
2016-03-23T01:05:16.706Z,7.6
2016-03-23T01:06:16.662Z,7.67
2016-03-23T01:07:16.649Z,7.63
2016-03-23T01:08:16.620Z,7.61
2016-03-23T01:09:16.592Z,7.58
2016-03-23T01:10:16.578Z,7.63
2016-03-23T01:11:16.535Z,7.56
2016-03-23T01:12:16.522Z,7.66
2016-03-23T01:13:16.478Z,7.6
2016-03-23T01:14:16.465Z,7.57
2016-03-23T01:15:16.436Z,7.61
2016-03-23T01:16:16.408Z,7.56
2016-03-23T01:17:16.379Z,7.61
2016-03-23T01:18:16.351Z,7.6
2016-03-23T01:19:16.322Z,7.63
2016-03-23T01:20:16.308Z,7.6
2016-03-23T01:21:16.281Z,7.77
2016-03-23T01:22:16.252Z,7.63
2016-03-23T01:23:16.223Z,7.67
2016-03-23T01:24:16.211Z,7.72
2016-03-23T01:25:16.182Z,7.61
2016-03-23T01:26:16.138Z,7.79
2016-03-23T01:27:16.125Z,7.75
2016-03-23T01:28:16.097Z,7.7
2016-03-23T01:29:16.068Z,7.83
2016-03-23T01:30:16.038Z,7.85
2016-03-23T01:31:16.011Z,7.85
2016-03-23T01:32:15.982Z,7.77
2016-03-23T01:33:15.954Z,7.8
2016-03-23T01:34:15.941Z,7.77
2016-03-23T01:35:15.913Z,7.82
2016-03-23T01:36:15.883Z,7.8
2016-03-23T01:37:15.854Z,7.76
2016-03-23T01:38:15.826Z,7.76
2016-03-23T01:39:15.798Z,7.83
2016-03-23T01:40:15.785Z,7.8
2016-03-23T01:41:15.756Z,7.83
2016-03-23T01:42:15.743Z,7.82
2016-03-23T01:43:15.699Z,7.77
2016-03-23T01:44:15.670Z,7.88
2016-03-23T01:45:15.642Z,7.77
2016-03-23T01:46:15.614Z,7.75
2016-03-23T01:47:15.600Z,7.8
2016-03-23T01:48:15.572Z,7.85
2016-03-23T01:49:15.543Z,7.83
2016-03-23T01:50:15.514Z,7.76
2016-03-23T01:51:15.502Z,7.85
2016-03-23T01:52:15.458Z,7.76
2016-03-23T01:53:15.445Z,7.82
2016-03-23T01:54:15.416Z,7.8
2016-03-23T01:55:15.403Z,7.8
2016-03-23T01:56:15.375Z,7.82
2016-03-23T01:57:15.346Z,7.77
2016-03-23T01:58:15.317Z,7.8
2016-03-23T01:59:15.288Z,7.79
2016-03-23T02:00:15.261Z,7.85
2016-03-23T02:01:15.232Z,7.76
2016-03-23T02:02:15.202Z,7.8
2016-03-23T02:03:15.191Z,7.82
2016-03-23T02:04:15.146Z,7.82
2016-03-23T02:05:15.133Z,7.83
2016-03-23T02:06:15.105Z,7.8
2016-03-23T02:07:15.077Z,7.88
2016-03-23T02:08:15.068Z,7.82
2016-03-23T02:09:15.159Z,7.85
2016-03-23T02:10:14.845Z,7.85
2016-03-23T02:11:15.115Z,7.88
2016-03-23T02:12:14.969Z,7.85
2016-03-23T02:13:14.910Z,7.83
2016-03-23T02:14:14.912Z,7.77
2016-03-23T02:15:14.868Z,7.91
2016-03-23T02:16:14.839Z,7.72
2016-03-23T02:17:14.826Z,7.77
2016-03-23T02:18:14.798Z,7.83
2016-03-23T02:19:14.769Z,7.79
2016-03-23T02:20:14.741Z,7.79
2016-03-23T02:21:14.718Z,7.82
2016-03-23T02:22:14.674Z,7.85
2016-03-23T02:23:14.645Z,7.8
2016-03-23T02:24:14.617Z,7.82
2016-03-23T02:25:14.603Z,7.77
2016-03-23T02:26:14.576Z,7.82
2016-03-23T02:27:14.547Z,7.77
2016-03-23T02:28:14.518Z,7.8
2016-03-23T02:29:14.489Z,7.8
2016-03-23T02:30:14.461Z,7.85
2016-03-23T02:31:14.447Z,7.77
2016-03-23T02:32:14.420Z,7.85
2016-03-23T02:33:14.391Z,7.83
2016-03-23T02:34:14.363Z,7.79
2016-03-23T02:35:14.333Z,7.7
2016-03-23T02:36:14.321Z,7.83
2016-03-23T02:37:14.277Z,7.79
2016-03-23T02:38:14.248Z,7.72
2016-03-23T02:39:14.235Z,7.73
2016-03-23T02:40:14.206Z,7.7
2016-03-23T02:41:14.179Z,7.73
2016-03-23T02:42:14.165Z,7.73
2016-03-23T02:43:14.137Z,7.73
2016-03-23T02:44:14.093Z,7.73
2016-03-23T02:45:14.079Z,7.75
2016-03-23T02:46:14.051Z,7.7
2016-03-23T02:47:14.022Z,7.77
2016-03-23T02:48:13.994Z,7.73
2016-03-23T02:49:13.965Z,7.7
2016-03-23T02:50:13.937Z,7.75
2016-03-23T02:51:13.923Z,7.82
2016-03-23T02:52:13.895Z,7.72
2016-03-23T02:53:13.867Z,7.72
2016-03-23T02:54:13.838Z,7.73
2016-03-23T02:55:13.810Z,7.72
2016-03-23T02:56:13.781Z,7.7
2016-03-23T02:57:13.753Z,7.77
2016-03-23T02:58:13.740Z,7.77
2016-03-23T02:59:13.711Z,7.77
2016-03-23T03:00:13.745Z,7.73
2016-03-23T03:01:13.653Z,7.69
2016-03-23T03:02:13.641Z,7.75
2016-03-23T03:03:13.597Z,7.79
2016-03-23T03:04:13.583Z,7.8
2016-03-23T03:05:13.555Z,7.76
2016-03-23T03:06:13.527Z,7.83
2016-03-23T03:07:13.499Z,7.82
2016-03-23T03:08:13.469Z,7.77
2016-03-23T03:09:13.457Z,7.8
2016-03-23T03:10:13.428Z,7.85
2016-03-23T03:11:13.400Z,7.85
2016-03-23T03:12:13.371Z,7.82
2016-03-23T03:13:13.342Z,7.8
2016-03-23T03:14:13.438Z,7.79
2016-03-23T03:15:13.301Z,7.87
2016-03-23T03:16:13.272Z,7.85
2016-03-23T03:17:13.229Z,7.79
2016-03-23T03:18:13.059Z,7.8
2016-03-23T03:19:13.186Z,7.88
2016-03-23T03:20:13.158Z,7.79
2016-03-23T03:21:13.129Z,7.85
2016-03-23T03:22:13.101Z,7.82
2016-03-23T03:23:13.072Z,7.77
2016-03-23T03:24:13.059Z,7.77
2016-03-23T03:25:13.031Z,7.77
2016-03-23T03:26:13.002Z,7.83
2016-03-23T03:27:12.973Z,7.83
2016-03-23T03:28:12.945Z,7.79
2016-03-23T03:29:12.948Z,7.79
2016-03-23T03:30:12.903Z,7.82
2016-03-23T03:31:12.876Z,7.8
2016-03-23T03:32:12.862Z,7.73
2016-03-23T03:33:12.820Z,7.76
2016-03-23T03:34:12.790Z,7.75
2016-03-23T03:35:12.761Z,7.73
2016-03-23T03:36:12.733Z,7.61
2016-03-23T03:37:12.705Z,7.73
2016-03-23T03:38:12.692Z,7.75
2016-03-23T03:39:12.663Z,7.75
2016-03-23T03:40:12.634Z,7.76
2016-03-23T03:41:12.606Z,7.75
2016-03-23T03:42:12.593Z,7.75
2016-03-23T03:43:12.565Z,7.8
2016-03-23T03:44:12.583Z,7.76
2016-03-23T03:45:12.508Z,7.69
2016-03-23T03:46:12.479Z,7.72
2016-03-23T03:47:12.450Z,7.61
2016-03-23T03:48:12.438Z,7.73
2016-03-23T03:49:12.408Z,7.61
2016-03-23T03:50:12.380Z,7.61
2016-03-23T03:51:12.352Z,7.66
2016-03-23T03:52:12.323Z,7.7
2016-03-23T03:53:12.294Z,7.72
2016-03-23T03:54:12.266Z,7.61
2016-03-23T03:55:12.238Z,7.63
2016-03-23T03:56:12.209Z,7.6
2016-03-23T03:57:12.196Z,7.66
2016-03-23T03:58:12.168Z,7.6
2016-03-23T03:59:12.185Z,7.67
2016-03-23T04:00:12.110Z,7.69
2016-03-23T04:01:12.098Z,7.6
2016-03-23T04:02:12.068Z,7.69
2016-03-23T04:03:12.040Z,7.63
2016-03-23T04:04:12.012Z,7.63
2016-03-23T04:05:11.984Z,7.66
2016-03-23T04:06:11.954Z,7.61
2016-03-23T04:07:11.942Z,7.66
2016-03-23T04:08:11.897Z,7.63
2016-03-23T04:09:11.869Z,7.61
2016-03-23T04:10:11.856Z,7.6
2016-03-23T04:11:11.827Z,7.57
2016-03-23T04:12:11.800Z,7.53
2016-03-23T04:13:11.770Z,7.48
2016-03-23T04:14:11.820Z,7.5
2016-03-23T04:15:11.713Z,7.5
2016-03-23T04:16:11.685Z,7.5
2016-03-23T04:17:11.672Z,7.51
2016-03-23T04:18:11.643Z,7.5
2016-03-23T04:19:11.630Z,7.51
2016-03-23T04:20:11.601Z,7.4
2016-03-23T04:21:11.573Z,7.48
2016-03-23T04:22:11.544Z,7.57
2016-03-23T04:23:11.515Z,7.6
2016-03-23T04:24:11.487Z,7.57
2016-03-23T04:25:11.474Z,7.51
2016-03-23T04:26:11.429Z,7.53
2016-03-23T04:27:11.401Z,7.48
2016-03-23T04:28:11.373Z,7.53
2016-03-23T04:29:11.453Z,7.61
2016-03-23T04:30:11.331Z,7.6
2016-03-23T04:31:11.303Z,7.56
2016-03-23T04:32:11.274Z,7.63
2016-03-23T04:33:11.261Z,7.66
2016-03-23T04:34:11.217Z,7.67
2016-03-23T04:35:11.204Z,7.61
2016-03-23T04:36:11.175Z,7.67
2016-03-23T04:37:11.147Z,7.61
2016-03-23T04:38:11.119Z,7.66
2016-03-23T04:39:11.090Z,7.66
2016-03-23T04:40:10.905Z,7.61
2016-03-23T04:41:11.033Z,7.67
2016-03-23T04:42:11.005Z,7.6
2016-03-23T04:43:10.992Z,7.54
2016-03-23T04:44:11.010Z,7.57
2016-03-23T04:45:10.934Z,7.57
2016-03-23T04:46:10.906Z,7.5
2016-03-23T04:47:10.877Z,7.5
2016-03-23T04:48:10.864Z,7.54
2016-03-23T04:49:10.820Z,7.53
2016-03-23T04:50:10.808Z,7.54
2016-03-23T04:51:10.763Z,7.47
2016-03-23T04:52:10.749Z,7.56
2016-03-23T04:53:10.722Z,7.51
2016-03-23T04:54:10.708Z,7.51
2016-03-23T04:55:10.665Z,7.53
2016-03-23T04:56:10.652Z,7.5
2016-03-23T04:57:10.607Z,7.53
2016-03-23T04:58:10.594Z,7.56
2016-03-23T04:59:10.596Z,7.5
2016-03-23T05:00:10.538Z,7.47
2016-03-23T05:01:10.509Z,7.53
2016-03-23T05:02:10.480Z,7.45
2016-03-23T05:03:10.467Z,7.56
2016-03-23T05:04:10.439Z,7.51
2016-03-23T05:05:10.237Z,7.5
2016-03-23T05:06:10.382Z,7.58
2016-03-23T05:07:10.353Z,7.53
2016-03-23T05:08:10.325Z,7.53
2016-03-23T05:09:10.311Z,7.53
2016-03-23T05:10:10.267Z,7.54
2016-03-23T05:11:10.254Z,7.51
2016-03-23T05:12:10.210Z,7.56
2016-03-23T05:13:10.197Z,7.5
2016-03-23T05:14:10.168Z,7.5
2016-03-23T05:15:10.156Z,7.48
2016-03-23T05:16:10.108Z,7.45
2016-03-23T05:17:10.070Z,7.51
2016-03-23T05:18:10.046Z,7.47
2016-03-23T05:19:10.007Z,7.53
2016-03-23T05:20:09.969Z,7.53
2016-03-23T05:21:09.932Z,7.47
2016-03-23T05:22:09.899Z,7.47
2016-03-23T05:23:09.883Z,7.47
2016-03-23T05:24:09.835Z,7.43
2016-03-23T05:25:09.819Z,7.51
2016-03-23T05:26:09.788Z,7.45
2016-03-23T05:27:09.742Z,7.47
2016-03-23T05:28:09.727Z,7.47
2016-03-23T05:29:09.728Z,7.47
2016-03-23T05:30:09.667Z,7.48
2016-03-23T05:31:09.637Z,7.42
2016-03-23T05:32:09.624Z,7.48
2016-03-23T05:33:09.596Z,7.42
2016-03-23T05:34:09.567Z,7.48
2016-03-23T05:35:09.537Z,7.43
2016-03-23T05:36:09.509Z,7.36
2016-03-23T05:37:09.480Z,7.33
2016-03-23T05:38:09.452Z,7.5
2016-03-23T05:39:09.438Z,7.45
2016-03-23T05:40:09.410Z,7.53
2016-03-23T05:41:09.381Z,7.47
2016-03-23T05:42:09.368Z,7.5
2016-03-23T05:43:09.324Z,7.48
2016-03-23T05:44:09.295Z,7.5
2016-03-23T05:45:09.266Z,7.48
2016-03-23T05:46:09.238Z,7.5
2016-03-23T05:47:09.210Z,7.54
2016-03-23T05:48:09.197Z,7.48
2016-03-23T05:49:09.168Z,7.48
2016-03-23T05:50:09.140Z,7.48
2016-03-23T05:51:09.111Z,7.48
2016-03-23T05:52:09.082Z,7.48
2016-03-23T05:53:09.070Z,7.48
2016-03-23T05:54:09.041Z,7.5
2016-03-23T05:55:09.012Z,7.5
2016-03-23T05:56:08.985Z,7.43
2016-03-23T05:57:08.956Z,7.48
2016-03-23T05:58:08.927Z,7.45
2016-03-23T05:59:08.899Z,7.48
2016-03-23T06:00:08.886Z,7.47
2016-03-23T06:01:08.857Z,7.45
2016-03-23T06:02:08.828Z,7.39
2016-03-23T06:03:08.784Z,7.47
2016-03-23T06:04:08.772Z,7.35
2016-03-23T06:05:08.742Z,7.5
2016-03-23T06:06:08.730Z,7.48
2016-03-23T06:07:08.699Z,7.5
2016-03-23T06:08:08.676Z,7.45
2016-03-23T06:09:08.632Z,7.54
2016-03-23T06:10:08.620Z,7.51
2016-03-23T06:11:08.591Z,7.6
2016-03-23T06:12:08.562Z,7.45
2016-03-23T06:13:08.534Z,7.54
2016-03-23T06:14:08.506Z,7.53
2016-03-23T06:15:08.476Z,7.58
2016-03-23T06:16:08.464Z,7.63
2016-03-23T06:17:08.434Z,7.67
2016-03-23T06:18:08.406Z,7.61
2016-03-23T06:19:08.378Z,7.63
2016-03-23T06:20:08.350Z,7.67
2016-03-23T06:21:08.321Z,7.6
2016-03-23T06:22:08.308Z,7.72
2016-03-23T06:23:08.123Z,7.73
2016-03-23T06:24:08.250Z,7.73
2016-03-23T06:25:08.222Z,7.72
2016-03-23T06:26:08.209Z,7.76
2016-03-23T06:27:08.181Z,7.72
2016-03-23T06:28:08.152Z,7.7
2016-03-23T06:29:08.124Z,7.77
2016-03-23T06:30:08.094Z,7.72
2016-03-23T06:31:08.066Z,7.72
2016-03-23T06:32:08.038Z,7.76
2016-03-23T06:33:08.010Z,7.75
2016-03-23T06:34:07.997Z,7.67
2016-03-23T06:35:07.968Z,7.72
2016-03-23T06:36:07.940Z,7.76
2016-03-23T06:37:07.910Z,7.73
2016-03-23T06:38:07.898Z,7.77
2016-03-23T06:39:07.869Z,7.79
2016-03-23T06:40:07.825Z,7.75
2016-03-23T06:41:07.078Z,7.73
2016-03-23T06:42:07.783Z,7.76
2016-03-23T06:43:07.770Z,7.82
2016-03-23T06:44:07.742Z,7.77
2016-03-23T06:45:07.714Z,7.77
2016-03-23T06:46:07.685Z,7.82
2016-03-23T06:47:07.656Z,7.79
2016-03-23T06:48:07.628Z,7.83
2016-03-23T06:49:07.599Z,7.82
2016-03-23T06:50:07.586Z,7.83
2016-03-23T06:51:07.558Z,7.82
2016-03-23T06:52:07.544Z,7.83
2016-03-23T06:53:07.500Z,7.87
2016-03-23T06:54:07.488Z,7.9
2016-03-23T06:55:07.459Z,7.85
2016-03-23T06:56:07.431Z,7.8
2016-03-23T06:57:07.403Z,7.76
2016-03-23T06:58:07.374Z,7.8
2016-03-23T06:59:07.345Z,7.83
2016-03-23T07:00:07.317Z,7.82
2016-03-23T07:01:07.303Z,7.77
2016-03-23T07:02:07.275Z,7.8
2016-03-23T07:03:07.247Z,7.82
2016-03-23T07:04:07.218Z,7.79
2016-03-23T07:05:07.189Z,7.8
2016-03-23T07:06:07.191Z,7.8
2016-03-23T07:07:07.335Z,7.83
2016-03-23T07:08:07.165Z,7.83
2016-03-23T07:09:07.091Z,7.9
2016-03-23T07:10:07.062Z,7.85
2016-03-23T07:11:07.049Z,7.88
2016-03-23T07:12:07.021Z,7.91
2016-03-23T07:13:06.992Z,7.97
2016-03-23T07:14:06.963Z,8
2016-03-23T07:15:06.934Z,7.94
2016-03-23T07:16:06.922Z,7.98
2016-03-23T07:17:06.893Z,8
2016-03-23T07:18:06.864Z,8.12
2016-03-23T07:19:06.836Z,8.06
2016-03-23T07:20:06.823Z,8.05
2016-03-23T07:21:06.778Z,7.98
2016-03-23T07:22:06.766Z,8.15
2016-03-23T07:23:06.737Z,8.15
2016-03-23T07:24:06.709Z,8.06
2016-03-23T07:25:06.697Z,8.1
2016-03-23T07:26:06.652Z,8.05
2016-03-23T07:27:06.639Z,8.13
2016-03-23T07:28:06.625Z,8.1
2016-03-23T07:29:06.582Z,8.08
2016-03-23T07:30:06.553Z,8.1
2016-03-23T07:31:06.541Z,8.12
2016-03-23T07:32:06.511Z,8.1
2016-03-23T07:33:06.483Z,8.1
2016-03-23T07:34:06.455Z,8.03
2016-03-23T07:35:06.426Z,8.18
2016-03-23T07:36:06.413Z,8.16
2016-03-23T07:37:06.385Z,8.16
2016-03-23T07:38:06.356Z,8.19
2016-03-23T07:39:06.327Z,8.16
2016-03-23T07:40:06.314Z,8.19
2016-03-23T07:41:06.301Z,8.18
2016-03-23T07:42:06.273Z,8.2
2016-03-23T07:43:06.228Z,8.26
2016-03-23T07:44:06.201Z,8.27
2016-03-23T07:45:06.187Z,8.2
2016-03-23T07:46:06.159Z,8.18
2016-03-23T07:47:06.131Z,8.18
2016-03-23T07:48:06.101Z,8.15
2016-03-23T07:49:06.089Z,8.16
2016-03-23T07:50:06.060Z,8.19
2016-03-23T07:51:06.031Z,8.16
2016-03-23T07:52:06.003Z,8.18
2016-03-23T07:53:05.989Z,8.09
2016-03-23T07:54:06.117Z,8.13
2016-03-23T07:55:05.933Z,8.18
2016-03-23T07:56:05.904Z,8.15
2016-03-23T07:57:05.876Z,8.2
2016-03-23T07:58:05.863Z,8.16
2016-03-23T07:59:05.834Z,8.15
2016-03-23T08:00:05.805Z,8.15
2016-03-23T08:01:05.824Z,8.19
2016-03-23T08:02:05.764Z,8.27
2016-03-23T08:03:05.752Z,8.19
2016-03-23T08:04:05.708Z,8.18
2016-03-23T08:05:05.679Z,8.26
2016-03-23T08:06:05.666Z,8.19
2016-03-23T08:07:05.652Z,8.2
2016-03-23T08:08:05.608Z,8.24
2016-03-23T08:09:05.580Z,8.27
2016-03-23T08:10:05.567Z,8.34
2016-03-23T08:11:05.538Z,8.37
2016-03-23T08:12:05.509Z,8.42
2016-03-23T08:13:05.481Z,8.37
2016-03-23T08:14:05.468Z,8.42
2016-03-23T08:15:05.471Z,8.42
2016-03-23T08:16:05.411Z,8.37
2016-03-23T08:17:05.398Z,8.34
2016-03-23T08:18:05.370Z,8.42
2016-03-23T08:19:05.356Z,8.33
2016-03-23T08:20:05.329Z,8.33
2016-03-23T08:21:05.300Z,8.31
2016-03-23T08:22:05.271Z,8.36
2016-03-23T08:23:05.258Z,8.28
2016-03-23T08:24:05.230Z,8.34
2016-03-23T08:25:05.201Z,8.42
2016-03-23T08:26:05.172Z,8.37
2016-03-23T08:27:05.144Z,8.46
2016-03-23T08:28:05.131Z,8.53
2016-03-23T08:29:05.102Z,8.44
2016-03-23T08:30:05.106Z,8.55
2016-03-23T08:31:05.061Z,8.56
2016-03-23T08:32:05.033Z,8.66
2016-03-23T08:33:05.019Z,8.67
2016-03-23T08:34:05.007Z,8.73
2016-03-23T08:35:04.963Z,8.71
2016-03-23T08:36:04.949Z,8.78
2016-03-23T08:37:04.921Z,8.94
2016-03-23T08:38:05.001Z,8.91
2016-03-23T08:39:04.880Z,8.89
2016-03-23T08:40:04.851Z,9.02
2016-03-23T08:41:04.822Z,9.04
2016-03-23T08:42:04.794Z,9.1
2016-03-23T08:43:04.781Z,9.08
2016-03-23T08:44:04.751Z,9.04
2016-03-23T08:45:04.849Z,9.14
2016-03-23T08:46:04.710Z,9.18
2016-03-23T08:47:04.698Z,9.23
2016-03-23T08:48:04.669Z,9.19
2016-03-23T08:49:04.640Z,9.31
2016-03-23T08:50:05.487Z,9.36
2016-03-23T08:51:04.598Z,9.29
2016-03-23T08:52:04.571Z,9.54
2016-03-23T08:53:04.558Z,9.47
2016-03-23T08:54:04.528Z,9.46
2016-03-23T08:55:04.500Z,9.48
2016-03-23T08:56:04.472Z,9.56
2016-03-23T08:57:04.459Z,9.56
2016-03-23T08:58:04.477Z,9.65
2016-03-23T08:59:04.417Z,9.66
2016-03-23T09:00:04.467Z,9.61
2016-03-23T09:01:04.360Z,9.69
2016-03-23T09:02:04.364Z,9.65
2016-03-23T09:03:04.335Z,9.64
2016-03-23T09:04:04.306Z,9.66
2016-03-23T09:05:04.371Z,9.66
2016-03-23T09:06:04.264Z,9.64
2016-03-23T09:07:04.236Z,9.69
2016-03-23T09:08:04.223Z,9.82
2016-03-23T09:09:04.194Z,9.92
2016-03-23T09:10:04.181Z,9.92
2016-03-23T09:11:04.138Z,9.95
2016-03-23T09:12:04.124Z,9.86
2016-03-23T09:13:04.299Z,9.89
2016-03-23T09:14:04.082Z,10.02
2016-03-23T09:15:04.148Z,10.09
2016-03-23T09:16:04.073Z,10.19
2016-03-23T09:17:04.029Z,10.1
2016-03-23T09:18:04.000Z,10.1
2016-03-23T09:19:03.987Z,10.1
2016-03-23T09:20:03.958Z,10.13
2016-03-23T09:21:03.945Z,10.1
2016-03-23T09:22:03.917Z,10.1
2016-03-23T09:23:03.903Z,10.13
2016-03-23T09:24:03.876Z,10.1
2016-03-23T09:25:03.847Z,10.1
2016-03-23T09:26:03.833Z,10.02
2016-03-23T09:27:03.805Z,10.05
2016-03-23T09:28:03.777Z,10.09
2016-03-23T09:29:03.764Z,10.02
2016-03-23T09:30:03.828Z,10.02
2016-03-23T09:31:03.722Z,10.02
2016-03-23T09:32:03.709Z,10.05
2016-03-23T09:33:03.680Z,9.89
2016-03-23T09:34:03.653Z,9.92
2016-03-23T09:35:03.686Z,9.91
2016-03-23T09:36:03.673Z,9.98
2016-03-23T09:37:03.644Z,9.99
2016-03-23T09:38:03.569Z,10.02
2016-03-23T09:39:03.557Z,10.16
2016-03-23T09:40:03.543Z,10.2
2016-03-23T09:41:03.546Z,10.19
2016-03-23T09:42:03.486Z,10.26
2016-03-23T09:43:03.473Z,10.31
2016-03-23T09:44:03.446Z,10.31
2016-03-23T09:45:03.416Z,10.33
2016-03-23T09:46:03.404Z,10.26
2016-03-23T09:47:03.375Z,10.3
2016-03-23T09:48:03.362Z,10.37
2016-03-23T09:49:03.334Z,10.33
2016-03-23T09:50:03.320Z,10.28
2016-03-23T09:51:03.306Z,10.19
2016-03-23T09:52:03.278Z,10.2
2016-03-23T09:53:03.375Z,10.22
2016-03-23T09:54:03.331Z,10.16
2016-03-23T09:55:03.537Z,10.13
2016-03-23T09:56:03.181Z,10.09
2016-03-23T09:57:03.167Z,10.02
2016-03-23T09:58:03.138Z,10.01
2016-03-23T09:59:03.126Z,9.97
2016-03-23T10:00:03.097Z,9.97
2016-03-23T10:01:03.068Z,9.91
2016-03-23T10:02:03.055Z,10.02
2016-03-23T10:03:03.027Z,9.99
2016-03-23T10:04:03.014Z,10.07
2016-03-23T10:05:02.986Z,10.07
2016-03-23T10:06:02.972Z,9.99
2016-03-23T10:07:02.944Z,10.12
2016-03-23T10:08:02.930Z,10.05
2016-03-23T10:09:02.903Z,10.02
2016-03-23T10:10:02.890Z,10.02
2016-03-23T10:11:02.861Z,10.01
2016-03-23T10:12:02.816Z,9.99
2016-03-23T10:13:02.804Z,10.02
2016-03-23T10:14:02.791Z,10.05
2016-03-23T10:15:02.762Z,9.95
2016-03-23T10:16:02.735Z,9.97
2016-03-23T10:17:02.721Z,9.89
2016-03-23T10:18:02.692Z,9.87
2016-03-23T10:19:02.680Z,9.8
2016-03-23T10:20:02.651Z,9.74
2016-03-23T10:21:02.638Z,9.69
2016-03-23T10:22:02.609Z,9.8
2016-03-23T10:23:02.596Z,9.73
2016-03-23T10:24:02.567Z,9.74
2016-03-23T10:25:02.540Z,9.68
2016-03-23T10:26:02.526Z,9.69
2016-03-23T10:27:02.497Z,9.69
2016-03-23T10:28:02.469Z,9.64
2016-03-23T10:29:02.441Z,9.72
2016-03-23T10:30:02.428Z,9.69
2016-03-23T10:31:02.399Z,9.69
2016-03-23T10:32:02.370Z,9.66
2016-03-23T10:33:02.358Z,9.76
2016-03-23T10:34:02.329Z,9.73
2016-03-23T10:35:02.317Z,9.69
2016-03-23T10:36:02.288Z,9.69
2016-03-23T10:37:02.274Z,9.61
2016-03-23T10:38:02.277Z,9.72
2016-03-23T10:39:02.233Z,9.66
2016-03-23T10:40:02.205Z,9.74
2016-03-23T10:41:02.176Z,9.72
2016-03-23T10:42:02.163Z,9.72
2016-03-23T10:43:02.135Z,9.74
2016-03-23T10:44:02.106Z,9.64
2016-03-23T10:45:02.094Z,9.68
2016-03-23T10:46:02.065Z,9.72
2016-03-23T10:47:02.036Z,9.69
2016-03-23T10:48:02.023Z,9.73
2016-03-23T10:49:01.995Z,9.74
2016-03-23T10:50:01.997Z,9.82
2016-03-23T10:51:01.953Z,9.66
2016-03-23T10:52:01.940Z,9.66
2016-03-23T10:53:01.926Z,9.72
2016-03-23T10:54:02.383Z,9.66
2016-03-23T10:55:01.854Z,9.69
2016-03-23T10:56:01.842Z,9.73
2016-03-23T10:57:01.812Z,9.73
2016-03-23T10:58:01.800Z,9.69
2016-03-23T10:59:01.772Z,9.68
2016-03-23T11:00:01.742Z,9.64
2016-03-23T11:01:01.719Z,9.68
2016-03-23T11:02:01.706Z,9.72
2016-03-23T11:03:01.678Z,9.72
2016-03-23T11:04:01.649Z,9.79
2016-03-23T11:05:01.636Z,9.8
2016-03-23T11:06:01.607Z,9.65
2016-03-23T11:07:01.579Z,9.58
2016-03-23T11:08:01.566Z,9.62
2016-03-23T11:09:01.538Z,9.55
2016-03-23T11:10:01.524Z,9.54
2016-03-23T11:11:01.496Z,9.51
2016-03-23T11:12:01.468Z,9.54
2016-03-23T11:13:01.767Z,9.56
2016-03-23T11:14:01.426Z,9.58
2016-03-23T11:15:01.397Z,9.65
2016-03-23T11:16:01.385Z,9.69
2016-03-23T11:17:01.356Z,9.64
2016-03-23T11:18:01.451Z,9.79
2016-03-23T11:19:01.315Z,9.87
2016-03-23T11:20:01.301Z,9.77
2016-03-23T11:21:01.273Z,9.87
2016-03-23T11:22:01.245Z,9.94
2016-03-23T11:23:01.231Z,9.94
2016-03-23T11:24:01.203Z,9.97
2016-03-23T11:25:01.174Z,10.05
2016-03-23T11:26:01.162Z,9.98
2016-03-23T11:27:01.133Z,9.99
2016-03-23T11:28:01.401Z,9.94
2016-03-23T11:29:01.092Z,9.91
2016-03-23T11:30:01.063Z,9.92
2016-03-23T11:31:01.034Z,9.92
2016-03-23T11:32:01.022Z,9.97
2016-03-23T11:33:01.009Z,9.94
2016-03-23T11:34:00.980Z,9.89
2016-03-23T11:35:00.951Z,9.97
2016-03-23T11:36:00.939Z,9.89
2016-03-23T11:37:00.941Z,10.13
2016-03-23T11:38:00.881Z,9.95
2016-03-23T11:39:00.868Z,10.09
2016-03-23T11:40:00.840Z,9.98
2016-03-23T11:41:00.826Z,9.98
2016-03-23T11:42:00.799Z,10.02
2016-03-23T11:43:00.785Z,10.01
2016-03-23T11:44:00.756Z,9.91
2016-03-23T11:45:00.743Z,9.95
2016-03-23T11:46:00.715Z,9.92
2016-03-23T11:47:00.687Z,9.92
2016-03-23T11:48:00.673Z,9.91
2016-03-23T11:49:00.645Z,9.95
2016-03-23T11:50:00.617Z,10.02
2016-03-23T11:51:00.603Z,10.02
2016-03-23T11:52:00.576Z,10.09
2016-03-23T11:53:00.562Z,10.04
2016-03-23T11:54:00.534Z,10.17
2016-03-23T11:55:00.520Z,10.28
2016-03-23T11:56:00.492Z,10.33
2016-03-23T11:57:00.464Z,10.19
2016-03-23T11:58:00.434Z,10.34
2016-03-23T11:59:00.422Z,10.35
2016-03-23T12:00:00.409Z,10.42
2016-03-23T12:01:00.364Z,10.46
2016-03-23T12:02:00.400Z,10.41
2016-03-23T12:03:00.323Z,10.48
2016-03-23T12:04:00.310Z,10.46
2016-03-23T12:05:00.422Z,10.38
2016-03-23T12:06:00.269Z,10.37
2016-03-23T12:07:00.241Z,10.42
2016-03-23T12:08:00.352Z,10.31
2016-03-23T12:09:00.433Z,10.42
2016-03-23T12:10:00.248Z,10.41
2016-03-23T12:11:00.157Z,10.41
2016-03-23T12:12:00.144Z,10.49
2016-03-23T12:13:00.116Z,10.38
2016-03-23T12:14:00.102Z,10.41
2016-03-23T12:15:00.074Z,10.48
2016-03-23T12:16:00.093Z,10.46
2016-03-23T12:17:00.033Z,10.54
2016-03-23T12:18:00.004Z,10.64
2016-03-23T12:19:00.085Z,10.63
2016-03-23T12:19:59.962Z,10.76
2016-03-23T12:20:59.951Z,10.72
2016-03-23T12:21:59.921Z,10.71
2016-03-23T12:22:59.909Z,10.72
2016-03-23T12:24:00.270Z,10.82
2016-03-23T12:24:59.867Z,10.86
2016-03-23T12:25:59.854Z,10.97
2016-03-23T12:26:59.841Z,10.99
2016-03-23T12:27:59.812Z,11.11
2016-03-23T12:28:59.800Z,11.17
2016-03-23T12:29:59.770Z,11.4
2016-03-23T12:30:59.742Z,11.3
2016-03-23T12:31:59.730Z,11.37
2016-03-23T12:32:59.700Z,11.43
2016-03-23T12:33:59.688Z,11.6
2016-03-23T12:34:59.659Z,11.6
2016-03-23T12:35:59.647Z,11.55
2016-03-23T12:36:59.633Z,11.65
2016-03-23T12:37:59.605Z,11.65
2016-03-23T12:38:59.592Z,11.68
2016-03-23T12:39:59.563Z,11.73
2016-03-23T12:40:59.550Z,11.73
2016-03-23T12:41:59.537Z,11.75
2016-03-23T12:42:59.524Z,11.87
2016-03-23T12:43:59.496Z,11.87
2016-03-23T12:44:59.467Z,11.83
2016-03-23T12:45:59.454Z,11.84
2016-03-23T12:46:59.441Z,11.94
2016-03-23T12:47:59.412Z,11.95
2016-03-23T12:48:59.400Z,11.87
2016-03-23T12:49:59.371Z,11.94
2016-03-23T12:50:59.358Z,11.91
2016-03-23T12:51:59.408Z,11.91
2016-03-23T12:52:59.318Z,11.91
2016-03-23T12:53:59.304Z,12
2016-03-23T12:54:59.276Z,12.03
2016-03-23T12:55:59.262Z,11.91
2016-03-23T12:56:59.250Z,11.97
2016-03-23T12:57:59.220Z,11.9
2016-03-23T12:58:59.192Z,11.83
2016-03-23T12:59:59.180Z,11.72
2016-03-23T13:00:59.167Z,11.66
2016-03-23T13:01:59.200Z,11.75
2016-03-23T13:02:59.125Z,11.7
2016-03-23T13:03:59.112Z,11.72
2016-03-23T13:04:59.083Z,11.63
2016-03-23T13:05:59.071Z,11.59
2016-03-23T13:06:59.042Z,11.59
2016-03-23T13:07:59.013Z,11.5
2016-03-23T13:08:59.001Z,11.57
2016-03-23T13:09:58.972Z,11.5
2016-03-23T13:10:58.959Z,11.54
2016-03-23T13:11:58.930Z,11.57
2016-03-23T13:12:58.918Z,11.57
2016-03-23T13:13:58.889Z,11.48
2016-03-23T13:14:58.876Z,11.48
2016-03-23T13:15:58.988Z,11.5
2016-03-23T13:16:58.835Z,11.45